Cacequi, Brazil
Current Conditions -  °F | °C
As of 11:00 AM on Saturday 25 Oct 2014 (Local Time) from SBSM Reporting Station
Broken Clouds Broken Clouds  
Wind Chill: 70°   Ceiling: 1500
Heat Index: 70°   Visibility: 6mi
Dew Point: 64°   Wind: 7mph
Humidity: 83%   Direction: 110°ESE
Pressure: 29.94"   Gusts: NA
Location:  29.88°S, 54.82°W
Report Text: SBSM 251300Z 11006KT 050V140 9999 SCT009 BKN015 21/18 Q1014
Loading
Personal Weather Stations






























Interactive Weather Map
Tropical Storm Tracking
New forecast layout! Learn more

10-Day Weather Forecast

Advertisements
Track Severe Weather on mobile